createdAt,value
2022-12-03T00:03:29.745Z,13.38
2022-12-03T00:08:31.598Z,16.13
2022-12-03T00:13:33.221Z,15.90
2022-12-03T00:18:34.924Z,13.32
2022-12-03T00:23:41.809Z,13.52
2022-12-03T00:28:44.117Z,12.95
2022-12-03T00:33:45.763Z,14.23
2022-12-03T00:38:47.428Z,14.35
2022-12-03T00:43:49.076Z,14.82
2022-12-03T00:48:50.743Z,13.52
2022-12-03T00:53:52.459Z,14.05
2022-12-03T00:58:54.125Z,15.30
2022-12-03T01:03:55.837Z,13.98
2022-12-03T01:08:57.525Z,14.43
2022-12-03T01:13:59.129Z,15.18
2022-12-03T01:19:00.841Z,14.35
2022-12-03T01:24:02.632Z,13.80
2022-12-03T01:29:04.623Z,13.27
2022-12-03T01:34:06.270Z,14.02
2022-12-03T01:39:08.153Z,13.75
2022-12-03T01:44:17.835Z,13.55
2022-12-03T01:49:22.525Z,14.23
2022-12-03T01:54:32.867Z,13.85
2022-12-03T01:59:37.423Z,14.13
2022-12-03T02:04:39.572Z,13.05
2022-12-03T02:09:41.169Z,13.95
2022-12-03T02:14:42.899Z,13.38
2022-12-03T02:19:44.764Z,12.50
2022-12-03T02:24:54.346Z,14.63
2022-12-03T02:29:56.694Z,13.50
2022-12-03T02:34:58.305Z,14.05
2022-12-03T02:40:06.976Z,14.18
2022-12-03T02:45:13.359Z,15.13
2022-12-03T02:50:17.641Z,14.10
2022-12-03T02:55:19.870Z,14.55
2022-12-03T03:00:23.016Z,13.70
2022-12-03T03:05:25.159Z,14.40
2022-12-03T03:10:27.338Z,15.82
2022-12-03T03:15:28.995Z,14.88
2022-12-03T03:20:30.723Z,14.45
2022-12-03T03:25:32.455Z,14.02
2022-12-03T03:30:37.398Z,15.27
2022-12-03T03:35:54.588Z,14.02
2022-12-03T03:40:56.795Z,14.68
2022-12-03T03:45:58.567Z,13.10
2022-12-03T03:51:00.795Z,13.93
2022-12-03T03:56:02.485Z,14.65
2022-12-03T04:01:04.464Z,13.63
2022-12-03T04:06:06.651Z,12.07
2022-12-03T04:11:26.913Z,14.77
2022-12-03T04:16:28.852Z,12.18
2022-12-03T04:21:49.169Z,12.32
2022-12-03T04:27:09.291Z,12.10
2022-12-03T04:32:30.303Z,12.15
2022-12-03T04:37:31.913Z,12.10
2022-12-03T04:42:33.528Z,12.52
2022-12-03T04:47:39.736Z,13.27
2022-12-03T04:52:41.749Z,13.55
2022-12-03T04:57:43.414Z,11.75
2022-12-03T05:02:45.137Z,13.07
2022-12-03T05:07:47.184Z,11.77
2022-12-03T05:12:48.841Z,12.65
2022-12-03T05:17:50.483Z,13.98
2022-12-03T05:22:52.158Z,11.60
2022-12-03T05:27:53.824Z,12.95
2022-12-03T05:32:55.911Z,11.20
2022-12-03T05:37:57.528Z,12.35
2022-12-03T05:43:01.275Z,12.18
2022-12-03T05:48:04.359Z,11.98
2022-12-03T05:53:06.290Z,11.13
2022-12-03T05:58:08.206Z,12.02
2022-12-03T06:03:10.479Z,11.95
2022-12-03T06:08:12.612Z,12.23
2022-12-03T06:13:14.300Z,11.45
2022-12-03T06:18:15.940Z,11.88
2022-12-03T06:23:17.590Z,12.43
2022-12-03T06:28:19.219Z,13.95
2022-12-03T06:33:20.879Z,12.45
2022-12-03T06:38:22.556Z,11.52
2022-12-03T06:43:24.341Z,11.88
2022-12-03T06:48:26.003Z,11.73
2022-12-03T06:53:27.609Z,12.63
2022-12-03T06:58:29.242Z,11.88
2022-12-03T07:03:30.853Z,13.32
2022-12-03T07:08:32.632Z,10.52
2022-12-03T07:13:34.267Z,12.40
2022-12-03T07:18:35.975Z,13.32
2022-12-03T07:23:37.601Z,10.45
2022-12-03T07:28:39.238Z,11.65
2022-12-03T07:33:40.944Z,11.00
2022-12-03T07:38:42.615Z,10.40
2022-12-03T07:43:45.253Z,11.95
2022-12-03T07:48:46.932Z,10.52
2022-12-03T07:53:48.598Z,11.52
2022-12-03T07:58:50.395Z,11.48
2022-12-03T08:03:52.218Z,10.68
2022-12-03T08:08:54.228Z,12.57
2022-12-03T08:13:57.502Z,11.52
2022-12-03T08:18:59.195Z,10.15
2022-12-03T08:24:11.923Z,11.35
2022-12-03T08:29:16.771Z,10.70
2022-12-03T08:34:23.578Z,11.80
2022-12-03T08:39:41.527Z,10.48
2022-12-03T08:44:43.184Z,13.00
2022-12-03T08:50:17.409Z,12.32
2022-12-03T08:55:36.556Z,10.88
2022-12-03T09:00:38.729Z,12.65
2022-12-03T09:05:40.607Z,13.23
2022-12-03T09:10:42.555Z,11.80
2022-12-03T09:15:44.165Z,13.35
2022-12-03T09:20:45.793Z,12.40
2022-12-03T09:25:47.419Z,10.57
2022-12-03T09:30:49.068Z,14.35
2022-12-03T09:35:50.766Z,12.10
2022-12-03T09:40:52.923Z,11.77
2022-12-03T09:45:54.617Z,15.63
2022-12-03T09:50:56.338Z,13.50
2022-12-03T09:55:59.510Z,13.70
2022-12-03T10:01:01.323Z,14.30
2022-12-03T10:06:02.968Z,14.40
2022-12-03T10:11:04.900Z,13.88
2022-12-03T10:16:11.163Z,13.38
2022-12-03T10:21:19.087Z,13.98
2022-12-03T10:26:37.657Z,14.35
2022-12-03T10:31:39.562Z,12.95
2022-12-03T10:36:41.359Z,14.73
2022-12-03T10:41:44.377Z,15.60
2022-12-03T10:46:47.367Z,14.73
2022-12-03T10:51:49.223Z,14.95
2022-12-03T10:56:52.124Z,14.82
2022-12-03T11:01:54.024Z,15.18
2022-12-03T11:06:55.802Z,15.77
2022-12-03T11:12:06.819Z,15.60
2022-12-03T11:17:08.771Z,14.55
2022-12-03T11:22:10.491Z,14.73
2022-12-03T11:27:12.195Z,14.90
2022-12-03T11:32:38.563Z,15.13
2022-12-03T11:37:40.369Z,14.82
2022-12-03T11:42:42.125Z,14.98
2022-12-03T11:48:01.578Z,14.40
2022-12-03T11:53:13.450Z,14.02
2022-12-03T11:58:16.717Z,15.57
2022-12-03T12:03:33.411Z,13.32
2022-12-03T12:08:38.383Z,14.57
2022-12-03T12:13:40.149Z,15.23
2022-12-03T12:18:55.178Z,15.98
2022-12-03T12:23:57.555Z,15.70
2022-12-03T12:28:59.268Z,15.95
2022-12-03T12:34:01.574Z,15.40
2022-12-03T12:39:10.567Z,14.93
2022-12-03T12:44:15.428Z,16.13
2022-12-03T12:49:20.856Z,14.48
2022-12-03T12:54:22.495Z,16.30
2022-12-03T12:59:25.820Z,14.52
2022-12-03T13:04:27.563Z,15.60
2022-12-03T13:09:29.862Z,16.70
2022-12-03T13:14:35.041Z,16.60
2022-12-03T13:20:02.051Z,15.90
2022-12-03T13:25:50.580Z,14.98
2022-12-03T13:30:48.119Z,17.25
2022-12-03T13:35:52.597Z,16.92
2022-12-03T13:41:01.942Z,14.70
2022-12-03T13:46:03.624Z,15.95
2022-12-03T13:51:23.889Z,16.20
2022-12-03T13:56:29.723Z,14.55
2022-12-03T14:01:31.515Z,15.25
2022-12-03T14:06:33.711Z,17.60
2022-12-03T14:11:54.096Z,16.38
2022-12-03T14:16:59.922Z,16.77
2022-12-03T14:22:02.503Z,16.42
2022-12-03T14:27:04.226Z,17.75
2022-12-03T14:32:06.155Z,15.43
2022-12-03T14:37:07.827Z,16.80
2022-12-03T14:42:16.658Z,16.73
2022-12-03T14:47:22.332Z,16.25
2022-12-03T14:52:23.971Z,13.40
2022-12-03T14:57:25.769Z,14.27
2022-12-03T15:02:27.581Z,13.43
2022-12-03T15:07:29.249Z,14.10
2022-12-03T15:12:31.573Z,13.52
2022-12-03T15:17:33.528Z,14.55
2022-12-03T15:22:35.193Z,13.18
2022-12-03T15:27:36.814Z,13.40
2022-12-03T15:32:38.396Z,14.18
2022-12-03T15:37:40.324Z,14.93
2022-12-03T15:42:41.958Z,15.00
2022-12-03T15:47:43.875Z,14.55
2022-12-03T15:52:45.556Z,17.55
2022-12-03T15:57:47.555Z,14.60
2022-12-03T16:02:52.721Z,15.00
2022-12-03T16:07:54.727Z,15.13
2022-12-03T16:12:56.390Z,15.57
2022-12-03T16:17:58.730Z,14.90
2022-12-03T16:23:00.360Z,13.85
2022-12-03T16:28:02.000Z,16.15
2022-12-03T16:33:03.646Z,15.80
2022-12-03T16:38:05.274Z,14.93
2022-12-03T16:43:08.515Z,14.75
2022-12-03T16:48:10.154Z,14.52
2022-12-03T16:53:12.138Z,16.00
2022-12-03T16:58:13.895Z,15.80
2022-12-03T17:03:16.141Z,16.95
2022-12-03T17:08:17.902Z,15.82
2022-12-03T17:13:19.721Z,15.27
2022-12-03T17:18:22.918Z,16.20
2022-12-03T17:23:24.538Z,15.52
2022-12-03T17:28:26.143Z,16.42
2022-12-03T17:33:27.759Z,14.73
2022-12-03T17:38:32.752Z,15.75
2022-12-03T17:43:37.257Z,14.30
2022-12-03T17:48:40.524Z,16.30
2022-12-03T17:53:42.193Z,15.10
2022-12-03T17:58:43.852Z,15.70
2022-12-03T18:03:45.536Z,15.93
2022-12-03T18:08:47.343Z,16.42
2022-12-03T18:13:49.038Z,16.83
2022-12-03T18:18:56.247Z,16.90
2022-12-03T18:24:00.040Z,17.95
2022-12-03T18:29:01.746Z,15.88
2022-12-03T18:34:03.376Z,17.50
2022-12-03T18:39:10.317Z,15.95
2022-12-03T18:44:12.276Z,15.90
2022-12-03T18:49:14.286Z,15.52
2022-12-03T18:54:15.937Z,17.30
2022-12-03T18:59:17.578Z,16.42
2022-12-03T19:04:19.330Z,16.23
2022-12-03T19:09:21.222Z,17.05
2022-12-03T19:14:22.930Z,15.65
2022-12-03T19:19:27.264Z,15.98
2022-12-03T19:24:29.522Z,17.02
2022-12-03T19:29:31.138Z,16.10
2022-12-03T19:34:32.953Z,15.85
2022-12-03T19:39:34.684Z,15.48
2022-12-03T19:44:36.340Z,16.17
2022-12-03T19:49:37.946Z,14.27
2022-12-03T19:54:39.617Z,14.25
2022-12-03T19:59:42.480Z,15.82
2022-12-03T20:04:44.154Z,17.38
2022-12-03T20:09:46.076Z,14.93
2022-12-03T20:14:48.585Z,15.98
2022-12-03T20:19:51.350Z,15.80
2022-12-03T20:24:53.096Z,16.10
2022-12-03T20:29:54.998Z,15.40
2022-12-03T20:34:56.792Z,15.32
2022-12-03T20:39:58.521Z,14.45
2022-12-03T20:45:00.113Z,15.15
2022-12-03T20:50:01.757Z,17.23
2022-12-03T20:55:03.821Z,16.10
2022-12-03T21:00:06.104Z,17.77
2022-12-03T21:05:08.224Z,15.48
2022-12-03T21:10:32.859Z,16.10
2022-12-03T21:15:34.497Z,16.17
2022-12-03T21:20:43.401Z,17.63
2022-12-03T21:25:45.027Z,18.13
2022-12-03T21:30:46.735Z,17.90
2022-12-03T21:35:48.367Z,18.42
2022-12-03T21:40:50.052Z,18.98
2022-12-03T21:45:52.045Z,18.92
2022-12-03T21:51:07.902Z,18.90
2022-12-03T21:56:12.797Z,18.88
2022-12-03T22:01:17.766Z,18.35
2022-12-03T22:06:19.792Z,17.52
2022-12-03T22:11:23.334Z,20.13
2022-12-03T22:16:25.029Z,19.23
2022-12-03T22:21:27.511Z,21.13
2022-12-03T22:26:29.123Z,18.80
2022-12-03T22:31:30.799Z,18.55
2022-12-03T22:36:32.501Z,19.92
2022-12-03T22:41:34.125Z,19.30
2022-12-03T22:46:35.888Z,16.85
2022-12-03T22:51:37.657Z,18.08
2022-12-03T22:56:39.639Z,18.40
2022-12-03T23:01:41.789Z,18.83
2022-12-03T23:06:43.672Z,16.98
2022-12-03T23:11:45.496Z,18.92
2022-12-03T23:16:47.421Z,16.58
2022-12-03T23:21:49.068Z,17.83
2022-12-03T23:26:53.540Z,18.30
2022-12-03T23:31:56.980Z,17.45
2022-12-03T23:36:58.705Z,18.42
2022-12-03T23:42:00.385Z,18.42
2022-12-03T23:47:02.314Z,15.68
2022-12-03T23:52:12.012Z,16.25
2022-12-03T23:57:16.306Z,16.80
